Time;durP1;ratioP1;P1;durP2;ratioP2;P2;SDS_P1;SDS_P2;PMS_P1;PMS_P2;Temp;Humidity;BMP_temperature;BMP_pressure;BME280_temperature;BME280_humidity;BME280_pressure;Samples;Min_cycle;Max_cycle;Signal;HPM_P1;HPM_P2
2021/04/05 00:02:42;;;;;;;3.53;2.38;;;;;;;;;;6135049;28;20051;-69
2021/04/05 00:05:43;;;;;;;6.93;2.30;;;;;;;;;;6131518;28;20051;-69
2021/04/05 00:08:45;;;;;;;6.30;2.67;;;;;;;;;;6134827;28;20074;-70
2021/04/05 00:11:46;;;;;;;4.47;2.38;;;;;;;;;;6143391;28;20051;-70
2021/04/05 00:14:47;;;;;;;3.65;2.28;;;;;;;;;;6141384;28;20134;-70
2021/04/05 00:17:49;;;;;;;6.88;2.33;;;;;;;;;;6140522;28;20130;-70
2021/04/05 00:20:53;;;;;;;3.40;2.22;;;;;;;;;;6141021;28;20119;-68
2021/04/05 00:23:55;;;;;;;4.60;2.08;;;;;;;;;;6146756;28;20486;-68
2021/04/05 00:26:56;;;;;;;3.47;2.00;;;;;;;;;;6144525;28;20134;-68
2021/04/05 00:29:57;;;;;;;4.25;2.60;;;;;;;;;;6141104;28;20075;-70
2021/04/05 00:32:58;;;;;;;3.58;2.08;;;;;;;;;;6137070;28;20324;-70
2021/04/05 00:35:59;;;;;;;4.03;2.03;;;;;;;;;;6146325;28;20118;-69
2021/04/05 00:39:01;;;;;;;6.95;2.10;;;;;;;;;;6144311;28;20143;-68
2021/04/05 00:42:03;;;;;;;3.83;2.13;;;;;;;;;;6153164;28;20054;-68
2021/04/05 00:45:07;;;;;;;6.32;2.45;;;;;;;;;;6144602;28;20110;-69
2021/04/05 00:48:09;;;;;;;;;;;;;;;;;;6150795;28;20166;-70
2021/04/05 00:51:13;;;;;;;7.72;2.58;;;;;;;;;;6142567;28;20040;-69
2021/04/05 00:54:15;;;;;;;;;;;;;;;;;;6138564;28;20142;-67
2021/04/05 00:57:16;;;;;;;3.72;2.00;;;;;;;;;;6146820;28;20020;-70
2021/04/05 01:00:20;;;;;;;3.35;2.05;;;;;;;;;;6146170;28;20142;-69
2021/04/05 01:03:23;;;;;;;5.30;2.40;;;;;;;;;;6145462;23;20511;-78
2021/04/05 01:06:26;;;;;;;3.80;1.92;;;;;;;;;;6130466;29;20134;-74
2021/04/05 01:09:28;;;;;;;4.20;2.10;;;;;;;;;;6130231;29;20077;-75
2021/04/05 01:12:29;;;;;;;3.95;2.00;;;;;;;;;;6129668;29;20094;-75
2021/04/05 01:15:30;;;;;;;7.30;2.08;;;;;;;;;;6129664;29;20071;-78
2021/04/05 01:18:32;;;;;;;6.93;3.10;;;;;;;;;;6136333;28;20616;-75
2021/04/05 01:21:34;;;;;;;5.63;2.10;;;;;;;;;;6151677;28;20082;-75
2021/04/05 01:24:36;;;;;;;5.72;2.13;;;;;;;;;;6149476;28;20055;-76
2021/04/05 01:27:37;;;;;;;4.45;2.47;;;;;;;;;;6123451;28;20155;-76
2021/04/05 01:30:40;;;;;;;3.13;1.90;;;;;;;;;;6127573;29;20132;-75
2021/04/05 01:33:42;;;;;;;3.38;1.80;;;;;;;;;;6119098;29;20511;-75
2021/04/05 01:36:43;;;;;;;7.18;1.90;;;;;;;;;;6120743;29;20078;-76
2021/04/05 01:39:45;;;;;;;3.55;2.03;;;;;;;;;;6108829;29;20147;-76
2021/04/05 01:42:46;;;;;;;4.75;2.20;;;;;;;;;;6135646;28;20077;-75
2021/04/05 01:45:47;;;;;;;4.32;2.20;;;;;;;;;;6143279;28;20055;-75
2021/04/05 01:48:48;;;;;;;6.10;2.08;;;;;;;;;;6149186;28;20118;-75
2021/04/05 01:51:49;;;;;;;3.88;2.20;;;;;;;;;;6143250;29;20051;-75
2021/04/05 01:54:51;;;;;;;3.95;1.88;;;;;;;;;;6144185;28;20040;-75
2021/04/05 01:57:52;;;;;;;4.30;1.92;;;;;;;;;;6148304;29;20059;-75
2021/04/05 02:00:54;;;;;;;3.90;2.22;;;;;;;;;;6146097;28;20078;-78
2021/04/05 02:03:56;;;;;;;3.08;2.13;;;;;;;;;;6137806;28;20110;-75
2021/04/05 02:06:57;;;;;;;7.15;2.45;;;;;;;;;;6138623;28;20525;-76
2021/04/05 02:09:59;;;;;;;5.43;2.72;;;;;;;;;;6142865;28;20107;-77
2021/04/05 02:13:00;;;;;;;4.13;2.10;;;;;;;;;;6145728;28;20050;-75
2021/04/05 02:16:02;;;;;;;3.63;2.10;;;;;;;;;;6141776;28;20078;-76
2021/04/05 02:19:03;;;;;;;4.65;2.00;;;;;;;;;;6141700;28;20187;-76
2021/04/05 02:22:05;;;;;;;3.42;2.08;;;;;;;;;;6138062;28;20708;-74
2021/04/05 02:25:08;;;;;;;4.90;2.10;;;;;;;;;;6140143;28;20081;-74
2021/04/05 02:28:09;;;;;;;5.47;2.00;;;;;;;;;;6138566;28;20090;-74
2021/04/05 02:31:12;;;;;;;5.00;2.30;;;;;;;;;;6141983;28;20055;-74
2021/04/05 02:34:14;;;;;;;2.95;2.10;;;;;;;;;;6141947;28;20463;-74
2021/04/05 02:37:15;;;;;;;3.20;1.77;;;;;;;;;;6139564;28;20091;-76
2021/04/05 02:40:18;;;;;;;6.00;1.95;;;;;;;;;;6138711;28;20070;-74
2021/04/05 02:43:20;;;;;;;4.40;2.38;;;;;;;;;;6138277;28;20074;-74
2021/04/05 02:46:24;;;;;;;3.13;1.90;;;;;;;;;;6145837;28;20089;-74
2021/04/05 02:49:25;;;;;;;3.75;2.08;;;;;;;;;;6144404;28;20067;-79
2021/04/05 02:52:26;;;;;;;4.82;2.17;;;;;;;;;;6141194;28;20082;-74
2021/04/05 02:55:28;;;;;;;4.15;2.00;;;;;;;;;;6135836;28;20240;-74
2021/04/05 02:58:31;;;;;;;3.75;2.33;;;;;;;;;;6135682;28;20578;-76
2021/04/05 03:01:32;;;;;;;3.60;2.30;;;;;;;;;;6133806;29;20079;-74
2021/04/05 03:04:33;;;;;;;5.25;2.15;;;;;;;;;;6136620;28;20130;-75
2021/04/05 03:07:35;;;;;;;2.92;1.92;;;;;;;;;;6133615;28;20122;-74
2021/04/05 03:10:37;;;;;;;6.07;2.50;;;;;;;;;;6137287;28;20126;-74
2021/04/05 03:13:39;;;;;;;5.97;2.20;;;;;;;;;;6144669;28;20130;-75
2021/04/05 03:16:41;;;;;;;4.40;2.30;;;;;;;;;;6142466;28;20743;-75
2021/04/05 03:19:42;;;;;;;3.22;2.13;;;;;;;;;;6138179;28;20146;-75
2021/04/05 03:22:44;;;;;;;5.05;2.25;;;;;;;;;;6131041;28;20075;-75
2021/04/05 03:25:46;;;;;;;4.30;2.17;;;;;;;;;;6112630;28;20516;-75
2021/04/05 03:28:47;;;;;;;3.85;1.98;;;;;;;;;;6127825;28;20079;-75
2021/04/05 03:31:49;;;;;;;5.72;2.10;;;;;;;;;;6125881;29;20104;-75
2021/04/05 03:34:55;;;;;;;3.70;2.03;;;;;;;;;;6113959;29;20131;-80
2021/04/05 03:37:57;;;;;;;4.53;2.40;;;;;;;;;;6139862;28;20067;-74
2021/04/05 03:41:01;;;;;;;3.17;2.00;;;;;;;;;;6121771;28;20079;-75
2021/04/05 03:44:06;;;;;;;3.78;2.05;;;;;;;;;;6137202;28;20059;-74
2021/04/05 03:47:12;;;;;;;4.72;1.90;;;;;;;;;;6140087;28;20565;-75
2021/04/05 03:50:17;;;;;;;2.72;2.30;;;;;;;;;;6145082;28;20122;-75
2021/04/05 03:53:23;;;;;;;4.20;2.30;;;;;;;;;;6145808;28;20070;-74
2021/04/05 03:56:33;;;;;;;3.92;2.38;;;;;;;;;;6124706;28;20168;-76
2021/04/05 03:59:37;;;;;;;4.47;2.20;;;;;;;;;;6122646;29;20130;-75
2021/04/05 04:02:43;;;;;;;;;;;;;;;;;;6140454;28;20200;-75
2021/04/05 04:05:49;;;;;;;3.40;2.17;;;;;;;;;;6117829;28;19930;-76
2021/04/05 04:08:51;;;;;;;4.43;2.25;;;;;;;;;;6119665;29;20059;-75
2021/04/05 04:11:55;;;;;;;5.30;2.50;;;;;;;;;;6126151;29;20066;-76
2021/04/05 04:14:57;;;;;;;4.03;2.22;;;;;;;;;;6145665;28;20052;-75
2021/04/05 04:18:00;;;;;;;6.38;2.05;;;;;;;;;;6148335;28;20079;-75
2021/04/05 04:21:01;;;;;;;3.67;2.00;;;;;;;;;;6151990;28;20138;-78
2021/04/05 04:24:03;;;;;;;4.88;2.17;;;;;;;;;;6138425;28;20082;-76
2021/04/05 04:27:07;;;;;;;4.30;2.55;;;;;;;;;;6145067;28;20055;-75
2021/04/05 04:30:09;;;;;;;4.18;2.30;;;;;;;;;;6149690;28;20137;-76
2021/04/05 04:33:11;;;;;;;4.72;2.55;;;;;;;;;;6135450;28;20063;-76
2021/04/05 04:36:12;;;;;;;4.22;2.55;;;;;;;;;;6141717;28;20154;-75
2021/04/05 04:39:15;;;;;;;5.43;2.35;;;;;;;;;;6137516;28;20094;-74
2021/04/05 04:42:17;;;;;;;6.28;2.40;;;;;;;;;;6135639;28;20138;-75
2021/04/05 04:45:19;;;;;;;3.58;2.33;;;;;;;;;;6127441;28;20551;-74
2021/04/05 04:48:20;;;;;;;5.55;3.13;;;;;;;;;;6133518;28;20079;-75
2021/04/05 04:51:21;;;;;;;7.22;2.67;;;;;;;;;;6138667;28;20047;-79
2021/04/05 04:54:22;;;;;;;4.28;2.30;;;;;;;;;;6135128;28;20127;-76
2021/04/05 04:57:24;;;;;;;4.78;2.45;;;;;;;;;;6126449;29;20162;-76
2021/04/05 05:00:26;;;;;;;3.60;2.25;;;;;;;;;;6132398;28;20075;-74
2021/04/05 05:03:28;;;;;;;5.53;2.85;;;;;;;;;;6137052;28;20103;-78
2021/04/05 05:06:29;;;;;;;5.80;2.80;;;;;;;;;;6143318;28;20138;-76
2021/04/05 05:09:31;;;;;;;6.00;2.47;;;;;;;;;;6134109;29;20085;-74
2021/04/05 05:12:33;;;;;;;9.80;2.67;;;;;;;;;;6128493;28;20150;-74
2021/04/05 05:15:35;;;;;;;2.95;2.13;;;;;;;;;;6117448;28;20499;-76
2021/04/05 05:18:37;;;;;;;5.43;2.65;;;;;;;;;;6118160;29;20538;-74
2021/04/05 05:21:43;;;;;;;4.05;2.40;;;;;;;;;;6122097;29;20082;-75
2021/04/05 05:24:47;;;;;;;6.20;2.53;;;;;;;;;;6129890;28;20477;-78
2021/04/05 05:27:51;;;;;;;7.78;2.55;;;;;;;;;;6129968;28;20531;-75
2021/04/05 05:30:52;;;;;;;7.68;2.65;;;;;;;;;;6133809;28;20222;-74
2021/04/05 05:33:53;;;;;;;4.93;2.50;;;;;;;;;;6114116;29;21571;-76
2021/04/05 05:36:54;;;;;;;5.85;2.30;;;;;;;;;;6126651;29;20097;-75
2021/04/05 05:39:55;;;;;;;3.35;2.17;;;;;;;;;;6133117;28;20047;-75
2021/04/05 05:43:17;;;;;;;6.95;2.78;;;;;;;;;;6131263;28;20499;-75
2021/04/05 05:46:23;;;;;;;5.45;2.50;;;;;;;;;;6133408;28;20043;-76
2021/04/05 05:49:33;;;;;;;6.82;2.55;;;;;;;;;;6124667;28;20114;-76
2021/04/05 05:52:44;;;;;;;4.30;2.33;;;;;;;;;;6146277;28;20047;-75
2021/04/05 05:56:13;;;;;;;3.88;2.35;;;;;;;;;;6136820;28;20130;-74
2021/04/05 05:59:23;;;;;;;4.88;1.92;;;;;;;;;;6135039;28;20059;-75
2021/04/05 06:02:36;;;;;;;7.47;2.30;;;;;;;;;;6132974;28;20055;-74
2021/04/05 06:05:43;;;;;;;3.53;2.20;;;;;;;;;;6108196;28;20083;-76
2021/04/05 06:08:56;;;;;;;6.22;2.10;;;;;;;;;;6121081;28;20051;-80
2021/04/05 06:12:00;;;;;;;7.78;2.35;;;;;;;;;;6136633;28;20122;-74
2021/04/05 06:15:11;;;;;;;5.55;2.83;;;;;;;;;;6141274;28;20627;-74
2021/04/05 06:18:23;;;;;;;5.43;2.65;;;;;;;;;;6147083;28;20039;-74
2021/04/05 06:21:33;;;;;;;3.17;2.10;;;;;;;;;;6139770;28;20138;-79
2021/04/05 06:24:44;;;;;;;4.25;2.15;;;;;;;;;;6142131;28;20047;-75
2021/04/05 06:27:52;;;;;;;3.72;2.40;;;;;;;;;;6115757;29;20043;-74
2021/04/05 06:31:06;;;;;;;3.53;1.98;;;;;;;;;;6109438;29;20411;-75
2021/04/05 06:34:15;;;;;;;3.13;1.80;;;;;;;;;;6106517;29;20048;-77
2021/04/05 06:37:22;;;;;;;3.78;2.05;;;;;;;;;;6117471;29;20591;-79
2021/04/05 06:40:26;;;;;;;6.65;1.73;;;;;;;;;;6121590;29;20135;-74
2021/04/05 06:43:46;;;;;;;2.78;1.92;;;;;;;;;;6122959;29;20079;-75
2021/04/05 06:47:04;;;;;;;2.95;1.80;;;;;;;;;;6115246;29;20135;-75
2021/04/05 06:50:25;;;;;;;4.63;1.98;;;;;;;;;;6121409;28;20136;-77
2021/04/05 06:53:49;;;;;;;4.15;1.75;;;;;;;;;;6120701;28;20502;-74
2021/04/05 06:57:05;;;;;;;2.50;1.77;;;;;;;;;;6140792;28;20162;-75
2021/04/05 07:00:09;;;;;;;2.53;1.60;;;;;;;;;;6110229;29;20486;-76
2021/04/05 07:03:31;;;;;;;2.45;1.20;;;;;;;;;;6134357;28;20075;-76
2021/04/05 07:06:43;;;;;;;3.40;1.52;;;;;;;;;;6131165;28;20079;-76
2021/04/05 07:09:47;;;;;;;5.30;1.58;;;;;;;;;;6134168;28;20535;-75
2021/04/05 07:12:53;;;;;;;;;;;;;;;;;;6117453;29;20183;-75
2021/04/05 07:15:59;;;;;;;2.85;1.70;;;;;;;;;;6107237;29;19958;-75
2021/04/05 07:19:17;;;;;;;4.28;1.20;;;;;;;;;;6118039;28;20058;-76
2021/04/05 07:22:25;;;;;;;3.65;1.70;;;;;;;;;;6113753;29;20127;-77
2021/04/05 07:25:30;;;;;;;4.78;1.90;;;;;;;;;;6128720;29;20121;-78
2021/04/05 07:28:34;;;;;;;;;;;;;;;;;;6140698;28;20051;-76
2021/04/05 07:31:36;;;;;;;;;;;;;;;;;;6145652;28;20297;-76
2021/04/05 07:34:47;;;;;;;2.80;1.40;;;;;;;;;;6140173;28;19930;-77
2021/04/05 07:37:54;;;;;;;4.90;1.60;;;;;;;;;;6128152;28;20087;-78
2021/04/05 07:40:58;;;;;;;3.03;1.50;;;;;;;;;;6119824;29;20044;-76
2021/04/05 07:44:28;;;;;;;4.95;1.67;;;;;;;;;;6119714;29;20140;-76
2021/04/05 07:47:35;;;;;;;4.93;2.03;;;;;;;;;;6113648;29;20087;-77
2021/04/05 07:50:39;;;;;;;4.30;1.80;;;;;;;;;;6116392;29;20048;-75
2021/04/05 07:53:46;;;;;;;3.53;1.60;;;;;;;;;;6130666;29;20141;-76
2021/04/05 07:57:00;;;;;;;2.67;1.70;;;;;;;;;;6140378;28;20823;-76
2021/04/05 08:00:08;;;;;;;2.28;1.48;;;;;;;;;;6121060;29;20056;-77
2021/04/05 08:03:20;;;;;;;4.20;1.70;;;;;;;;;;6122645;28;20154;-78
2021/04/05 08:06:26;;;;;;;4.25;1.60;;;;;;;;;;6145916;28;20059;-76
2021/04/05 08:09:34;;;;;;;4.32;1.60;;;;;;;;;;6149701;28;20418;-76
2021/04/05 08:12:42;;;;;;;4.15;1.52;;;;;;;;;;6145567;28;20145;-76
2021/04/05 08:15:53;;;;;;;4.10;1.63;;;;;;;;;;6148393;28;20126;-76
2021/04/05 08:18:56;;;;;;;2.30;1.38;;;;;;;;;;6130444;28;20127;-77
2021/04/05 08:22:02;;;;;;;1.92;1.45;;;;;;;;;;6128691;29;20075;-76
2021/04/05 08:25:12;;;;;;;2.70;1.75;;;;;;;;;;6117725;29;20135;-75
2021/04/05 08:28:21;;;;;;;2.35;1.48;;;;;;;;;;6122971;28;20131;-76
2021/04/05 08:31:29;;;;;;;5.10;1.95;;;;;;;;;;6118793;29;20106;-75
2021/04/05 08:34:35;;;;;;;2.03;1.70;;;;;;;;;;6137124;28;20142;-75
2021/04/05 08:37:47;;;;;;;3.35;1.75;;;;;;;;;;6145686;28;20497;-76
2021/04/05 08:40:54;;;;;;;2.67;1.70;;;;;;;;;;6136902;28;20134;-78
2021/04/05 08:44:00;;;;;;;3.90;1.90;;;;;;;;;;6124315;28;20050;-77
2021/04/05 08:47:04;;;;;;;2.60;1.70;;;;;;;;;;6126010;29;20075;-77
2021/04/05 08:50:08;;;;;;;2.42;1.80;;;;;;;;;;6116197;29;20062;-79
2021/04/05 08:53:12;;;;;;;3.25;1.88;;;;;;;;;;6123426;28;20082;-77
2021/04/05 08:56:15;;;;;;;4.13;1.65;;;;;;;;;;6138509;29;20126;-76
2021/04/05 08:59:22;;;;;;;2.15;1.40;;;;;;;;;;6124392;29;20067;-77
2021/04/05 09:02:26;;;;;;;2.65;1.77;;;;;;;;;;6144529;28;20135;-77
2021/04/05 09:05:28;;;;;;;3.78;1.90;;;;;;;;;;6139645;28;20087;-77
2021/04/05 09:08:31;;;;;;;4.07;1.70;;;;;;;;;;6142394;28;20063;-80
2021/04/05 09:11:38;;;;;;;4.18;1.80;;;;;;;;;;6135643;28;20070;-82
2021/04/05 09:15:01;;;;;;;4.55;1.90;;;;;;;;;;6140202;28;20149;-77
2021/04/05 09:18:13;;;;;;;5.47;2.07;;;;;;;;;;6132291;28;20537;-75
2021/04/05 09:21:26;;;;;;;2.90;1.80;;;;;;;;;;6120079;28;20086;-77
2021/04/05 09:24:32;;;;;;;;;;;;;;;;;;6120203;29;20543;-76
2021/04/05 09:27:58;;;;;;;4.18;2.03;;;;;;;;;;6119310;29;19963;-76
2021/04/05 09:31:28;;;;;;;6.63;2.10;;;;;;;;;;6120775;29;20100;-76
2021/04/05 09:35:01;;;;;;;4.78;1.80;;;;;;;;;;6100201;28;20775;-77
2021/04/05 09:38:13;;;;;;;5.22;2.22;;;;;;;;;;6135634;28;20087;-76
2021/04/05 09:41:31;;;;;;;4.05;2.05;;;;;;;;;;6128433;28;20052;-76
2021/04/05 09:44:48;;;;;;;3.58;2.10;;;;;;;;;;6121415;29;20135;-75
2021/04/05 09:48:46;;;;;;;2.75;2.15;;;;;;;;;;6140927;29;20519;-76
2021/04/05 09:51:59;;;;;;;5.93;2.47;;;;;;;;;;6024313;29;20194;-76
2021/04/05 09:55:03;;;;;;;4.32;2.17;;;;;;;;;;6134134;28;20447;-76
2021/04/05 09:58:08;;;;;;;3.78;2.47;;;;;;;;;;6140562;28;20287;-78
2021/04/05 10:01:12;;;;;;;3.58;2.25;;;;;;;;;;6147487;28;20174;-76
2021/04/05 10:04:14;;;;;;;3.80;2.22;;;;;;;;;;6126128;28;20130;-77
2021/04/05 10:07:17;;;;;;;2.97;2.13;;;;;;;;;;6118514;28;20055;-77
2021/04/05 10:10:20;;;;;;;4.77;2.20;;;;;;;;;;6118423;29;20102;-78
2021/04/05 10:13:24;;;;;;;3.72;2.35;;;;;;;;;;6118547;29;20130;-76
2021/04/05 10:16:26;;;;;;;5.60;2.22;;;;;;;;;;6130602;28;20051;-76
2021/04/05 10:19:29;;;;;;;5.30;2.50;;;;;;;;;;6140780;28;20130;-76
2021/04/05 10:22:39;;;;;;;3.88;2.40;;;;;;;;;;6138847;28;20078;-76
2021/04/05 10:25:40;;;;;;;3.20;2.47;;;;;;;;;;6140323;28;20138;-76
2021/04/05 10:28:43;;;;;;;3.50;2.40;;;;;;;;;;6122607;28;20118;-78
2021/04/05 10:31:45;;;;;;;3.53;2.33;;;;;;;;;;6112924;29;20119;-77
2021/04/05 10:34:47;;;;;;;6.70;2.60;;;;;;;;;;6118010;29;20066;-77
2021/04/05 10:37:48;;;;;;;5.75;2.50;;;;;;;;;;6122781;29;20180;-76
2021/04/05 10:40:50;;;;;;;6.80;3.10;;;;;;;;;;6124035;29;20116;-77
2021/04/05 10:43:56;;;;;;;6.30;2.95;;;;;;;;;;6090984;29;20138;-76
2021/04/05 10:46:59;;;;;;;5.18;2.97;;;;;;;;;;6133561;28;20139;-76
2021/04/05 10:50:03;;;;;;;6.40;2.78;;;;;;;;;;6146592;28;20086;-76
2021/04/05 10:53:07;;;;;;;4.85;2.97;;;;;;;;;;6139107;28;20637;-76
2021/04/05 10:56:10;;;;;;;3.67;2.55;;;;;;;;;;6132431;28;20485;-76
2021/04/05 10:59:16;;;;;;;5.32;2.97;;;;;;;;;;6135974;28;20142;-80
2021/04/05 11:02:20;;;;;;;4.85;2.80;;;;;;;;;;6136331;28;20498;-81
2021/04/05 11:05:23;;;;;;;4.22;3.13;;;;;;;;;;6138593;28;20074;-77
2021/04/05 11:08:25;;;;;;;4.05;2.75;;;;;;;;;;6120561;29;20056;-76
2021/04/05 11:11:30;;;;;;;5.90;2.88;;;;;;;;;;6122381;29;20047;-77
2021/04/05 11:14:32;;;;;;;5.88;2.90;;;;;;;;;;6130382;28;20055;-76
2021/04/05 11:17:34;;;;;;;3.83;2.90;;;;;;;;;;6123366;28;20474;-76
2021/04/05 11:20:37;;;;;;;4.72;3.10;;;;;;;;;;6137444;28;20994;-76
2021/04/05 11:23:39;;;;;;;3.63;3.10;;;;;;;;;;6140995;28;20043;-77
2021/04/05 11:26:43;;;;;;;5.57;3.23;;;;;;;;;;6135535;28;20066;-76
2021/04/05 11:29:48;;;;;;;6.07;3.33;;;;;;;;;;6129611;28;20048;-78
2021/04/05 11:32:50;;;;;;;4.68;3.60;;;;;;;;;;6117543;29;20139;-80
2021/04/05 11:35:52;;;;;;;3.80;3.40;;;;;;;;;;6130923;28;20051;-77
2021/04/05 11:38:55;;;;;;;7.95;3.63;;;;;;;;;;6120167;29;20115;-77
2021/04/05 11:41:57;;;;;;;7.65;3.85;;;;;;;;;;6114518;29;20088;-77
2021/04/05 11:45:02;;;;;;;5.15;3.85;;;;;;;;;;6115745;28;20126;-76
2021/04/05 11:48:04;;;;;;;5.85;3.40;;;;;;;;;;6117033;29;20043;-77
2021/04/05 11:51:05;;;;;;;7.68;3.90;;;;;;;;;;6119725;28;20061;-76
2021/04/05 11:54:09;;;;;;;6.72;3.40;;;;;;;;;;6119146;29;20102;-75
2021/04/05 11:57:11;;;;;;;4.63;3.45;;;;;;;;;;6119028;29;20135;-77
2021/04/05 12:00:18;;;;;;;6.33;3.70;;;;;;;;;;6141385;28;20078;-75
2021/04/05 12:03:23;;;;;;;6.35;3.92;;;;;;;;;;6141102;28;20136;-76
2021/04/05 12:06:33;;;;;;;5.68;3.90;;;;;;;;;;6142543;28;20130;-75
2021/04/05 12:09:38;;;;;;;5.53;3.83;;;;;;;;;;6129145;28;20135;-75
2021/04/05 12:12:41;;;;;;;4.60;3.60;;;;;;;;;;6114875;29;20134;-75
2021/04/05 12:15:43;;;;;;;10.02;3.60;;;;;;;;;;6117756;29;20131;-80
2021/04/05 12:18:45;;;;;;;11.82;4.18;;;;;;;;;;6121086;29;20055;-75
2021/04/05 12:21:50;;;;;;;8.43;5.18;;;;;;;;;;6128908;28;20176;-75
2021/04/05 12:24:51;;;;;;;6.38;4.45;;;;;;;;;;6117545;28;20086;-75
2021/04/05 12:27:56;;;;;;;4.70;3.75;;;;;;;;;;6141332;28;20473;-76
2021/04/05 12:30:59;;;;;;;4.32;3.55;;;;;;;;;;6138749;28;20075;-76
2021/04/05 12:34:08;;;;;;;8.80;3.95;;;;;;;;;;6143975;28;20138;-76
2021/04/05 12:37:14;;;;;;;5.82;3.72;;;;;;;;;;6145119;28;21230;-77
2021/04/05 12:40:15;;;;;;;4.30;3.50;;;;;;;;;;6148124;28;20047;-76
2021/04/05 12:43:17;;;;;;;5.20;4.10;;;;;;;;;;6149273;28;20142;-76
2021/04/05 12:46:20;;;;;;;6.50;3.75;;;;;;;;;;6146856;28;20476;-75
2021/04/05 12:49:23;;;;;;;4.13;3.60;;;;;;;;;;6148595;28;20075;-77
2021/04/05 12:52:29;;;;;;;4.82;3.80;;;;;;;;;;6125060;28;20091;-75
2021/04/05 12:55:36;;;;;;;6.53;4.47;;;;;;;;;;6110278;28;20048;-75
2021/04/05 12:58:37;;;;;;;5.13;3.80;;;;;;;;;;6121855;29;20090;-75
2021/04/05 13:01:44;;;;;;;7.55;3.65;;;;;;;;;;6118899;28;20559;-79
2021/04/05 13:04:52;;;;;;;4.97;3.50;;;;;;;;;;6119953;29;20060;-76
2021/04/05 13:07:58;;;;;;;5.22;3.35;;;;;;;;;;6134969;28;20500;-76
2021/04/05 13:11:03;;;;;;;5.80;3.58;;;;;;;;;;6147463;28;20555;-76
2021/04/05 13:14:06;;;;;;;6.15;4.00;;;;;;;;;;6130431;28;20127;-75
2021/04/05 13:17:10;;;;;;;4.95;3.92;;;;;;;;;;6125637;29;20067;-75
2021/04/05 13:20:14;;;;;;;7.03;4.10;;;;;;;;;;6119247;29;20789;-75
2021/04/05 13:23:15;;;;;;;5.28;3.60;;;;;;;;;;6117483;28;20111;-76
2021/04/05 13:26:24;;;;;;;5.50;4.20;;;;;;;;;;6111030;29;20076;-77
2021/04/05 13:29:28;;;;;;;8.02;3.70;;;;;;;;;;6138849;28;20055;-75
2021/04/05 13:32:32;;;;;;;7.65;4.60;;;;;;;;;;6145078;28;20098;-77
2021/04/05 13:35:33;;;;;;;5.03;3.80;;;;;;;;;;6136264;28;20483;-75
2021/04/05 13:38:35;;;;;;;5.97;4.43;;;;;;;;;;6111299;29;20182;-77
2021/04/05 13:41:38;;;;;;;4.75;4.13;;;;;;;;;;6114957;29;20627;-75
2021/04/05 13:44:39;;;;;;;4.53;3.72;;;;;;;;;;6127875;28;20174;-74
2021/04/05 13:47:45;;;;;;;5.95;4.13;;;;;;;;;;6133923;28;20644;-74
2021/04/05 13:50:47;;;;;;;5.57;4.00;;;;;;;;;;6115119;29;20147;-72
2021/04/05 13:53:53;;;;;;;5.88;4.10;;;;;;;;;;6113614;29;20164;-73
2021/04/05 13:56:57;;;;;;;5.35;4.00;;;;;;;;;;6130359;28;20130;-73
2021/04/05 14:00:04;;;;;;;8.32;4.47;;;;;;;;;;6118777;28;20542;-73
2021/04/05 14:03:08;;;;;;;8.05;4.40;;;;;;;;;;6127849;28;20437;-75
2021/04/05 14:06:13;;;;;;;5.68;4.70;;;;;;;;;;6117007;28;20055;-75
2021/04/05 14:09:16;;;;;;;6.43;4.10;;;;;;;;;;6113782;28;20645;-75
2021/04/05 14:12:21;;;;;;;5.85;4.10;;;;;;;;;;6115008;29;20098;-75
2021/04/05 14:15:25;;;;;;;10.68;4.45;;;;;;;;;;6116281;28;20058;-75
2021/04/05 14:18:32;;;;;;;8.77;4.30;;;;;;;;;;6113499;29;20140;-75
2021/04/05 14:21:35;;;;;;;6.40;4.28;;;;;;;;;;6120997;28;20513;-74
2021/04/05 14:24:41;;;;;;;9.77;4.07;;;;;;;;;;6118772;29;20063;-74
2021/04/05 14:27:46;;;;;;;13.73;4.10;;;;;;;;;;6128935;29;20130;-75
2021/04/05 14:30:51;;;;;;;8.13;4.07;;;;;;;;;;6146745;28;20094;-74
2021/04/05 14:33:56;;;;;;;6.28;4.03;;;;;;;;;;6120495;29;20558;-74
2021/04/05 14:36:58;;;;;;;6.85;3.92;;;;;;;;;;6119157;29;20472;-74
2021/04/05 14:40:03;;;;;;;6.82;3.85;;;;;;;;;;6136309;29;20380;-74
2021/04/05 14:43:08;;;;;;;18.02;4.90;;;;;;;;;;6126011;28;20063;-74
2021/04/05 14:46:12;;;;;;;5.68;4.05;;;;;;;;;;6129523;28;20130;-77
2021/04/05 14:49:22;;;;;;;6.47;4.32;;;;;;;;;;6129075;28;20048;-76
2021/04/05 14:52:25;;;;;;;6.25;4.10;;;;;;;;;;6136298;28;20150;-74
2021/04/05 14:55:28;;;;;;;;;;;;;;;;;;6142370;28;20506;-75
2021/04/05 14:58:30;;;;;;;6.70;4.40;;;;;;;;;;6141687;28;19929;-75
2021/04/05 15:01:34;;;;;;;11.70;4.10;;;;;;;;;;6144165;28;20137;-75
2021/04/05 15:04:39;;;;;;;40.28;5.35;;;;;;;;;;6143199;28;20094;-74
2021/04/05 15:07:43;;;;;;;7.82;4.93;;;;;;;;;;6150373;28;20470;-75
2021/04/05 15:10:46;;;;;;;16.67;4.78;;;;;;;;;;6139559;28;20100;-75
2021/04/05 15:13:49;;;;;;;6.65;5.00;;;;;;;;;;6133775;28;20134;-75
2021/04/05 15:16:52;;;;;;;16.35;5.20;;;;;;;;;;6111295;29;20424;-76
2021/04/05 15:20:03;;;;;;;18.65;5.88;;;;;;;;;;6110214;29;20051;-75
2021/04/05 15:23:05;;;;;;;26.08;5.57;;;;;;;;;;6117409;29;20491;-75
2021/04/05 15:26:06;;;;;;;7.63;4.68;;;;;;;;;;6121323;29;20067;-76
2021/04/05 15:29:11;;;;;;;7.35;4.30;;;;;;;;;;6117534;29;20067;-75
2021/04/05 15:32:13;;;;;;;23.80;5.63;;;;;;;;;;6113457;29;20044;-76
2021/04/05 15:35:17;;;;;;;28.43;7.13;;;;;;;;;;6132373;29;20131;-73
2021/04/05 15:38:18;;;;;;;18.75;4.53;;;;;;;;;;6143854;28;20070;-75
2021/04/05 15:41:23;;;;;;;34.08;6.75;;;;;;;;;;6135175;28;20067;-75
2021/04/05 15:44:25;;;;;;;7.60;4.30;;;;;;;;;;6140108;28;20130;-75
2021/04/05 15:47:31;;;;;;;5.93;4.60;;;;;;;;;;6142990;28;20051;-75
2021/04/05 15:50:49;;;;;;;12.07;4.70;;;;;;;;;;6144329;28;20233;-75
2021/04/05 15:53:53;;;;;;;5.70;4.40;;;;;;;;;;6142253;29;20843;-74
2021/04/05 15:56:59;;;;;;;7.10;4.60;;;;;;;;;;6131764;28;20506;-76
2021/04/05 16:00:04;;;;;;;14.18;5.28;;;;;;;;;;6135133;28;20058;-76
2021/04/05 16:03:08;;;;;;;23.33;6.78;;;;;;;;;;6133131;28;20517;-76
2021/04/05 16:06:16;;;;;;;;;;;;;;;;;;6145308;28;20051;-75
2021/04/05 16:09:21;;;;;;;22.27;5.18;;;;;;;;;;6144004;28;19964;-76
2021/04/05 16:12:26;;;;;;;17.25;5.13;;;;;;;;;;6143071;28;20153;-75
2021/04/05 16:15:29;;;;;;;8.30;4.22;;;;;;;;;;6133145;28;20426;-76
2021/04/05 16:18:34;;;;;;;6.90;3.60;;;;;;;;;;6143821;28;20138;-81
2021/04/05 16:21:43;;;;;;;6.93;4.50;;;;;;;;;;6156004;28;20589;-79
2021/04/05 16:24:52;;;;;;;8.85;4.32;;;;;;;;;;6130577;28;20063;-79
2021/04/05 16:27:55;;;;;;;15.43;5.10;;;;;;;;;;6134922;29;20355;-83
2021/04/05 16:30:58;;;;;;;6.13;4.25;;;;;;;;;;6134544;28;20054;-79
2021/04/05 16:34:05;;;;;;;17.85;4.80;;;;;;;;;;6130088;28;20171;-78
2021/04/05 16:37:11;;;;;;;13.50;4.78;;;;;;;;;;6121989;29;20470;-77
2021/04/05 16:40:17;;;;;;;17.90;4.40;;;;;;;;;;6120364;29;20180;-78
2021/04/05 16:43:23;;;;;;;7.35;4.30;;;;;;;;;;6117200;29;20077;-78
2021/04/05 16:46:25;;;;;;;11.48;4.72;;;;;;;;;;6110128;29;20048;-77
2021/04/05 16:49:31;;;;;;;5.93;4.47;;;;;;;;;;6112155;29;20581;-77
2021/04/05 16:52:36;;;;;;;9.48;4.13;;;;;;;;;;6111759;29;20067;-78
2021/04/05 16:55:37;;;;;;;9.13;4.65;;;;;;;;;;6115753;29;20067;-78
2021/04/05 16:58:41;;;;;;;6.28;5.20;;;;;;;;;;6116424;29;20047;-78
2021/04/05 17:01:42;;;;;;;;;;;;;;;;;;6118180;29;20130;-78
2021/04/05 17:04:45;;;;;;;38.95;6.63;;;;;;;;;;6118163;29;19927;-77
2021/04/05 17:07:56;;;;;;;5.97;4.15;;;;;;;;;;6122030;29;20052;-78
2021/04/05 17:11:01;;;;;;;7.05;4.35;;;;;;;;;;6138873;29;20075;-78
2021/04/05 17:14:08;;;;;;;7.35;4.78;;;;;;;;;;6122866;29;20440;-77
2021/04/05 17:17:11;;;;;;;10.85;4.57;;;;;;;;;;6135674;28;20107;-75
2021/04/05 17:20:21;;;;;;;8.10;4.50;;;;;;;;;;6134705;28;20481;-76
2021/04/05 17:23:25;;;;;;;5.20;4.13;;;;;;;;;;6124191;29;20058;-78
2021/04/05 17:26:32;;;;;;;4.93;2.63;;;;;;;;;;6125179;29;20143;-80
2021/04/05 17:29:38;;;;;;;7.05;1.98;;;;;;;;;;6119247;29;20051;-76
2021/04/05 17:32:42;;;;;;;4.60;1.70;;;;;;;;;;6117872;29;20053;-76
2021/04/05 17:35:47;;;;;;;5.20;1.50;;;;;;;;;;6125989;29;20062;-76
2021/04/05 17:38:53;;;;;;;8.18;1.88;;;;;;;;;;6129911;28;20062;-76
2021/04/05 17:41:59;;;;;;;6.35;1.60;;;;;;;;;;6122477;28;20198;-80
2021/04/05 17:45:03;;;;;;;6.70;1.90;;;;;;;;;;6143644;28;20126;-76
2021/04/05 17:48:07;;;;;;;;;;;;;;;;;;6147484;28;20142;-76
2021/04/05 17:51:21;;;;;;;8.10;1.83;;;;;;;;;;6142440;28;20022;-76
2021/04/05 17:54:30;;;;;;;7.20;1.60;;;;;;;;;;6141924;28;20125;-76
2021/04/05 17:57:47;;;;;;;24.92;3.08;;;;;;;;;;6136491;28;20134;-77
2021/04/05 18:00:52;;;;;;;5.88;1.52;;;;;;;;;;6127831;28;20697;-78
2021/04/05 18:04:00;;;;;;;4.75;1.60;;;;;;;;;;6126962;28;20079;-76
2021/04/05 18:07:07;;;;;;;10.65;2.13;;;;;;;;;;6144133;28;20080;-76
2021/04/05 18:10:24;;;;;;;9.50;1.88;;;;;;;;;;6125271;29;20510;-77
2021/04/05 18:13:37;;;;;;;10.27;1.85;;;;;;;;;;6142855;28;20164;-75
2021/04/05 18:16:48;;;;;;;8.73;1.73;;;;;;;;;;6127130;29;20554;-75
2021/04/05 18:20:01;;;;;;;6.22;1.30;;;;;;;;;;6119402;29;20050;-75
2021/04/05 18:23:33;;;;;;;4.80;1.50;;;;;;;;;;6118002;29;20063;-76
2021/04/05 18:26:50;;;;;;;4.57;1.73;;;;;;;;;;6130249;28;20078;-76
2021/04/05 18:30:07;;;;;;;4.50;1.58;;;;;;;;;;6111484;29;20131;-71
2021/04/05 18:33:24;;;;;;;8.98;2.63;;;;;;;;;;6114773;29;20847;-72
2021/04/05 18:36:33;;;;;;;6.90;4.68;;;;;;;;;;6133628;28;20055;-74